x

Neah Bay, - 6nm North Of Cape Flattery, Wa (traffic Separation Lighted Buoy) (46087) Wave Buoy

7:50am - Wed 24th May 2017 All times are PDT. -7 hours from GMT.

  • Sig Wave height 9.5ft
  • Swell Direction
  • Peak Period 10s
  • Average Period 8s
  • Wind
    16mph, 20mph gusts
  • Sea Temp 50°f
  • Air Temp 51°f
  • Sea Pressure 1017.3mb
  • Neah Bay, - 6nm North Of Cape Flattery, Wa     (traffic Separation Lighted Buoy)
  • Neah Bay, - 6nm North Of Cape Flattery, Wa     (traffic Separation Lighted Buoy)

More Historic Weather Station data

Upgrade to MSW Pro to gain access to the past 30 days of data for over 8000 Wavebouys and Weather Stations around the globe.

Join Pro

Comparision Forecast

View Surf forecast
   
Wed 05/24 7:50am 9.5ft 10s 8s 16 20 mph 1017.3mb 50f 51f
7:20am 8ft 9s 8s 18 25 mph 1017.3mb 50f 50f
6:50am 9.5ft 9s 8s 16 20 mph 1017.5mb 50f 50f
6:20am 9.5ft 9s 8s 13 18 mph 1017.4mb 50f 50f
5:50am 9ft 9s 8s 16 20 mph 1017.3mb 50f 50f
5:20am 9ft 9s 7s 18 20 mph 1017.4mb 50f 50f
4:50am 9.5ft 9s 7s 18 22 mph 1017.5mb 50f 50f
4:20am 9.5ft 9s 7s 20 25 mph 1017.4mb 50f 50f
3:50am 9ft 8s 7s 20 25 mph 1017.5mb 50f 50f
3:20am 9ft 9s 7s 20 25 mph 1017.8mb 50f 50f
2:50am 9ft 8s 7s 20 25 mph 1017.9mb 50f 50f
2:20am 10.5ft 8s 7s 22 27 mph 1017.9mb 51f 50f
1:50am 10ft 8s 7s 25 29 mph 1018.1mb 51f 50f
1:20am 10ft 9s 7s 22 27 mph 1018.3mb 51f 50f
12:50am 10.5ft 8s 7s 25 31 mph 1018.2mb 51f 50f
12:20am 10.5ft 9s 7s 25 31 mph 1018.4mb 51f 51f
Tue 05/23 11:50pm 10ft 8s 7s 25 29 mph 1018.3mb 51f 51f
11:20pm 12ft 8s 7s 25 31 mph 1018.4mb 51f 51f
10:50pm 11.5ft 8s 7s 27 34 mph 1018mb 51f 51f
10:20pm 11ft 8s 7s 29 36 mph 1017.8mb 51f 51f
9:50pm 11ft 8s 7s 29 36 mph 1017.7mb 51f 51f
9:20pm 10ft 8s 7s 29 36 mph 1018mb 52f 51f
8:50pm 10ft 8s 7s 27 31 mph 1017.9mb 52f 51f
8:20pm 10ft 8s 7s 29 36 mph 1017.7mb 52f 52f
7:50pm 9.5ft 8s 7s 22 31 mph 1018.5mb 52f 52f
7:20pm 9ft 8s 6s 18 27 mph 1018.9mb 52f 52f
6:50pm 8ft 7s 6s 22 29 mph 1018.6mb 52f 52f
6:20pm 8ft 6s 6s 25 31 mph 1018.5mb 53f 52f
5:50pm 8ft 11s 7s 27 34 mph 1018.6mb 53f 53f
5:20pm 8ft 11s 7s 25 29 mph 1018.7mb 53f 53f
4:50pm 8ft 11s 7s 25 29 mph 1018.7mb 53f 53f
4:20pm 8ft 11s 7s 22 27 mph 1018.6mb 53f 53f
3:50pm 7.5ft 12s 7s 20 25 mph 1018.8mb 53f 53f
3:20pm 7ft 11s 6s 20 27 mph 1018.7mb 53f 53f
2:50pm 7ft 11s 7s 25 29 mph 1018.6mb 53f 52f
2:20pm 7ft 10s 7s 18 22 mph 1018.7mb 53f 53f
1:50pm 7ft 11s 7s 16 18 mph 1018.7mb 53f 52f
1:20pm 6.5ft 11s 7s 13 18 mph 1018.8mb 53f 52f
12:50pm 7ft 12s 7s 13 18 mph 1018.8mb 53f 52f
12:20pm 7ft 10s 7s 13 16 mph 1018.7mb 53f 52f
11:50am 7ft 11s 7s 9 11 mph 1018.6mb 53f 52f
11:20am 7ft 12s 7s 11 13 mph 1018.6mb 53f 52f
10:50am 7.5ft 11s 7s 11 16 mph 1018.4mb 52f 52f
10:20am 7ft 11s 7s 11 13 mph 1018.7mb 52f 52f
9:50am 7.5ft 9s 7s 13 16 mph 1018.7mb 52f 52f
9:20am 8ft 10s 7s 11 13 mph 1018.8mb 52f 52f
8:50am 7.5ft 7s 7s 11 16 mph 1018.5mb 51f 52f
8:20am 7.5ft 9s 7s 9 13 mph 1018.2mb 51f 52f
7:50am 7ft 10s 7s 11 13 mph 1018.3mb 52f 51f
7:20am 7ft 8s 7s 13 18 mph 1018.3mb 51f 51f
6:50am 7ft 11s 7s 16 20 mph 1018.3mb 52f 51f
6:20am 7ft 10s 7s 16 22 mph 1018.1mb 52f 52f
5:50am 7ft 9s 7s 16 22 mph 1017.9mb 52f 53f
5:20am 7ft 10s 7s 11 13 mph 1017.9mb 52f 52f
4:50am 7ft 10s 7s 16 20 mph 1017.7mb 52f 52f
4:20am 7ft 10s 7s 18 25 mph 1017.6mb 52f 53f
3:50am 7ft 9s 7s 18 22 mph 1017.5mb 52f 52f
3:20am 7ft 10s 7s 16 20 mph 1017.3mb 52f 51f
2:50am 7ft 10s 7s 18 25 mph 1017.2mb 52f 51f
2:20am 6.5ft 10s 7s 16 20 mph 1017.3mb 52f 52f
1:50am 6ft 11s 7s 18 22 mph 1017.5mb 52f 53f
1:20am 7ft 11s 7s 16 20 mph 1017.5mb 52f 53f
12:50am 7ft 11s 7s 18 22 mph 1017.2mb 52f 53f
12:20am 7ft 10s 7s 18 20 mph 1017.2mb 53f 54f
Mon 05/22 11:50pm 7.5ft 10s 7s 18 22 mph 1017.2mb 53f 54f
11:20pm 7ft 9s 7s 16 16 mph 1017.2mb 53f 55f
10:50pm 7ft 10s 7s 9 13 mph 1017.8mb 53f 55f
10:20pm 7ft 10s 7s 4 9 mph 1018mb 53f 55f
9:50pm 7ft 11s 7s 7 11 mph 1017.9mb 53f 55f
9:20pm 6ft 8s 7s 7 9 mph 1017.9mb 54f 56f
8:50pm 6.5ft 10s 7s 4 7 mph 1018mb 54f 56f
8:20pm 5.5ft 10s 7s 7 9 mph 1018.1mb 54f 56f
7:50pm 6ft 10s 7s 4 7 mph 1018mb 54f 58f
7:20pm 6ft 10s 8s 4 9 mph 1018.4mb 54f 58f
6:50pm 5ft 10s 8s 7 11 mph 1018.9mb 54f 56f
6:20pm 5ft 11s 8s 13 18 mph 1019.1mb 54f 56f
5:50pm 5.5ft 11s 8s 9 11 mph 1019.4mb 54f 57f
5:20pm 6ft 10s 8s 11 13 mph 1019.6mb 54f 56f
4:50pm 6ft 10s 9s 11 13 mph 1019.7mb 55f 56f
4:20pm 6ft 11s 8s 9 11 mph 1020mb 55f 57f
3:50pm 6ft 10s 8s 11 13 mph 1020.3mb 55f 56f
3:20pm 6ft 11s 9s 7 9 mph 1020.4mb 55f 59f
2:50pm 5ft 10s 8s 4 7 mph 1020.2mb 54f 57f
2:20pm 5ft 10s 8s 9 11 mph 1020.2mb 54f 58f
1:50pm 5.5ft 10s 8s 11 13 mph 1020.3mb 54f 59f
1:20pm 5.5ft 10s 8s 11 13 mph 1020.8mb 54f 58f
12:50pm 6ft 10s 8s 11 11 mph 1020.9mb 53f 56f
12:20pm 5.5ft 9s 8s 9 11 mph 1021mb 53f 55f
11:50am 4.5ft 10s 7s 11 13 mph 1020.8mb 53f 55f
11:20am 5ft 10s 8s 11 13 mph 1020.8mb 53f 55f
10:50am 4.5ft 10s 7s 9 11 mph 1021.2mb 53f 54f
10:20am 5ft 10s 7s 9 11 mph 1021.1mb 53f 54f
9:50am 5ft 9s 7s 7 9 mph 1021.4mb 53f 54f
9:20am 5.5ft 10s 8s 7 9 mph 1021.6mb 52f 55f
8:50am 5ft 9s 7s 7 9 mph 1021.8mb 52f 53f
8:20am 5ft 10s 7s 7 9 mph 1022mb 52f 54f
7:50am 5.5ft 10s 8s 7 9 mph 1021.9mb 52f 53f
7:20am 5ft 9s 7s 4 7 mph 1022mb 52f 53f
6:50am 5ft 10s 8s 7 7 mph 1021.8mb 52f 53f
6:20am 4.5ft 10s 7s 7 9 mph 1021.4mb 52f 53f
5:50am 3.5ft 11s 7s 9 11 mph 1021.2mb 52f 53f
5:20am 4.5ft 11s 8s 11 13 mph 1021.2mb 52f 54f
4:50am 4.5ft 10s 7s 9 11 mph 1021.2mb 52f 54f
4:20am 4.5ft 9s 7s 4 4 mph 1021.8mb 52f 53f
3:50am 4ft 11s 7s 4 7 mph 1022.1mb 52f 53f
3:20am 4ft 11s 7s 4 4 mph 1021.9mb 52f 52f
2:50am 4ft 10s 7s 2 4 mph 1021.9mb 52f 52f
2:20am 3.5ft 11s 6s 4 4 mph 1022mb 52f 52f
1:50am 3.5ft 10s 6s 2 4 mph 1021.8mb 53f 53f
1:20am 3.5ft 10s 6s  -  0 mph 1021.7mb 53f 53f
12:50am 3.5ft 11s 6s 2 4 mph 1021.9mb 53f 53f
12:20am 3.5ft 10s 6s 4 4 mph 1022mb 53f 53f
Sun 05/21 11:50pm 3.5ft 11s 6s 2 4 mph 1021.8mb 53f 53f
11:20pm 3.5ft 11s 6s 4 7 mph 1022.1mb 53f 53f
10:50pm 3.5ft 10s 6s 7 7 mph 1022mb 53f 53f
10:20pm 3.5ft 10s 5s 4 7 mph 1022mb 53f 53f
9:50pm 3.5ft 11s 6s 7 7 mph 1022.3mb 53f 53f
9:20pm 3.5ft 11s 6s 7 7 mph 1022.1mb 53f 53f
8:50pm 3ft 10s 6s 4 4 mph 1022mb 53f 53f
8:20pm 3ft 11s 6s 7 7 mph 1022mb 53f 54f
7:50pm 2.5ft 10s 6s 7 9 mph 1022.2mb 53f 55f
7:20pm 3ft 10s 6s 7 7 mph 1022.3mb 53f 55f
6:50pm 3ft 10s 6s 4 7 mph 1022.4mb 53f 55f
6:20pm 2.5ft 11s 6s 7 9 mph 1022.7mb 53f 54f
5:50pm 3ft 10s 6s 7 9 mph 1022.9mb 53f 54f
5:20pm 2.5ft 8s 6s 9 11 mph 1023.3mb 53f 54f
4:50pm 3.5ft 8s 7s 9 11 mph 1023.4mb 53f 53f
4:20pm 3ft 10s 6s 7 7 mph 1023.6mb 53f 54f
3:50pm 3.5ft 8s 6s 7 9 mph 1024mb 53f 53f
3:20pm 3.5ft 10s 6s 9 11 mph 1024.2mb 53f 53f
2:50pm 3.5ft 8s 6s 7 7 mph 1024.4mb 53f 52f
2:20pm 3.5ft 8s 6s 2 7 mph 1024.5mb 53f 52f
1:50pm 3.5ft 8s 6s 4 7 mph 1024.6mb 53f 51f
1:20pm 3.5ft 10s 6s 7 7 mph 1024.8mb 53f 51f
12:50pm 3.5ft 8s 6s 7 9 mph 1024.8mb 53f 50f
12:20pm 3.5ft 8s 6s 4 7 mph 1024.9mb 53f 49f
11:50am 3.5ft 11s 6s 2 4 mph 1024.9mb 53f 49f
11:20am 3.5ft 9s 6s 2 2 mph 1025.1mb 52f 49f
10:50am 3.5ft 9s 6s  -  2 mph 1024.8mb 52f 49f
10:20am 3.5ft 8s 6s  -  2 mph 1024.7mb 52f 49f
9:50am 3.5ft 9s 6s  -  2 mph 1024.8mb 52f 49f
9:20am 4ft 8s 6s  -  2 mph 1024.9mb 52f 50f
8:50am 4ft 8s 6s 2 4 mph 1024.9mb 51f 49f
8:20am 3.5ft 9s 6s  -  2 mph 1024.9mb 51f 49f
7:50am 4.5ft 8s 7s 2 4 mph 1024.7mb 51f 49f
7:20am 4.5ft 8s 6s 2 4 mph 1024.5mb 51f 49f
6:50am 4.5ft 11s 6s  -  2 mph 1024.5mb 51f 49f
6:20am 4.5ft 8s 7s 7 9 mph 1024.4mb 51f 49f
5:50am 4ft 8s 6s 7 9 mph 1024.2mb 51f 50f
5:20am 4ft 8s 7s 2 4 mph 1024mb 51f 50f
4:50am 4.5ft 10s 7s 2 4 mph 1024.2mb 52f 50f
4:20am 4.5ft 10s 7s 4 7 mph 1024.3mb 52f 50f
3:50am 4.5ft 8s 7s 4 7 mph 1024.3mb 52f 51f
3:20am 4.5ft 8s 6s 4 7 mph 1024.2mb 52f 51f
2:50am 4.5ft 9s 6s 4 7 mph 1024.3mb 52f 51f
2:20am 4.5ft 8s 6s 7 9 mph 1024.1mb 52f 51f
1:50am 4.5ft 8s 6s 4 7 mph 1024.2mb 52f 51f
1:20am 5ft 8s 6s 9 11 mph 1024.1mb 52f 51f
12:50am 5ft 8s 6s 7 9 mph 1024mb 52f 51f
12:20am 5ft 11s 6s 7 9 mph 1023.7mb 52f 51f
Sat 05/20 11:50pm 5ft 8s 6s 7 11 mph 1023.6mb 52f 51f
11:20pm 4.5ft 8s 5s 9 13 mph 1023.5mb 52f 51f
10:50pm 4.5ft 9s 6s 11 13 mph 1023.5mb 52f 51f
10:20pm 4.5ft 11s 6s 13 18 mph 1023.4mb 52f 51f
9:50pm 4.5ft 8s 6s 13 16 mph 1023.2mb 52f 52f
9:20pm 4.5ft 9s 5s 13 18 mph 1023.1mb 52f 52f
8:50pm 4.5ft 11s 6s 11 13 mph 1022.9mb 52f 52f
8:20pm 4.5ft 8s 6s 9 11 mph 1022.8mb 52f 52f
7:50pm 4.5ft 11s 6s 13 18 mph 1022.8mb 52f 52f
7:20pm 4.5ft 11s 6s 11 13 mph 1022.9mb 52f 53f
6:50pm 4.5ft 9s 6s 11 16 mph 1023mb 53f 52f
5:50pm 4.5ft 11s 6s 13 18 mph 1023.4mb 53f 52f
5:20pm 4.5ft 11s 6s 13 16 mph 1023.6mb 53f 52f
4:50pm 4.5ft 11s 7s 13 16 mph 1023.7mb 53f 52f
4:20pm 5ft 8s 7s 11 13 mph 1023.7mb 53f 52f